Time;durP1;ratioP1;P1;durP2;ratioP2;P2;SDS_P1;SDS_P2;PMS_P1;PMS_P2;Temp;Humidity;BMP_temperature;BMP_pressure;BME280_temperature;BME280_humidity;BME280_pressure;Samples;Min_cycle;Max_cycle;Signal;HPM_P1;HPM_P2
2022/04/07 00:00:54;;;;;;;;;;;9.50;99.90;;;;;;8398105;28;19928;-70
2022/04/07 00:04:56;;;;;;;;;;;9.50;99.90;;;;;;8387015;28;19924;-71
2022/04/07 00:09:00;;;;;;;;;;;9.60;99.90;;;;;;8390449;28;19925;-70
2022/04/07 00:13:03;;;;;;;;;;;9.60;99.90;;;;;;8382869;28;19940;-71
2022/04/07 00:17:05;;;;;;;;;;;9.50;99.90;;;;;;8403740;28;19932;-70
2022/04/07 00:21:11;;;;;;;;;;;9.50;99.90;;;;;;8401187;28;19924;-71
2022/04/07 00:25:13;;;;;;;;;;;9.50;99.90;;;;;;8382009;28;19924;-70
2022/04/07 00:29:15;;;;;;;;;;;9.50;99.90;;;;;;8380987;28;19940;-71
2022/04/07 00:33:17;;;;;;;;;;;9.50;99.90;;;;;;8387507;28;19928;-71
2022/04/07 00:37:21;;;;;;;;;;;9.50;99.90;;;;;;8387956;28;20410;-70
2022/04/07 00:41:23;;;;;;;;;;;9.50;99.90;;;;;;8383991;28;20364;-70
2022/04/07 00:45:25;;;;;;;;;;;9.60;99.90;;;;;;8386400;28;19924;-71
2022/04/07 00:49:26;;;;;;;;;;;9.60;99.90;;;;;;8388704;28;19970;-71
2022/04/07 00:53:28;;;;;;;;;;;9.70;99.90;;;;;;8374178;28;20344;-71
2022/04/07 00:57:30;;;;;;;;;;;9.70;99.90;;;;;;8387100;28;19976;-70
2022/04/07 01:01:31;;;;;;;;;;;9.70;99.90;;;;;;8383983;28;19932;-71
2022/04/07 01:05:33;;;;;;;;;;;9.70;99.90;;;;;;8382289;28;20272;-71
2022/04/07 01:09:35;;;;;;;;;;;9.60;99.90;;;;;;8413833;27;19947;-70
2022/04/07 01:13:43;;;;;;;;;;;9.50;99.90;;;;;;8376853;28;19943;-71
2022/04/07 01:17:45;;;;;;;;;;;9.50;99.90;;;;;;8412745;27;19932;-70
2022/04/07 01:21:47;;;;;;;;;;;9.50;99.90;;;;;;8386439;28;19924;-70
2022/04/07 01:25:49;;;;;;;;;;;9.50;99.90;;;;;;8387754;28;19924;-71
2022/04/07 01:29:53;;;;;;;;;;;9.50;99.90;;;;;;8378327;28;19931;-70
2022/04/07 01:33:56;;;;;;;;;;;9.40;99.90;;;;;;8380690;28;19929;-71
2022/04/07 01:37:58;;;;;;;;;;;9.30;99.90;;;;;;8388533;28;19932;-71
2022/04/07 01:42:00;;;;;;;;;;;9.10;99.90;;;;;;8391775;28;19970;-70
2022/04/07 01:46:02;;;;;;;;;;;9.00;99.90;;;;;;8400067;28;19929;-71
2022/04/07 01:50:05;;;;;;;;;;;9.00;99.90;;;;;;8389039;28;19971;-71
2022/04/07 01:54:11;;;;;;;;;;;9.00;99.90;;;;;;8400643;28;19933;-71
2022/04/07 01:58:16;;;;;;;;;;;9.00;99.90;;;;;;8397523;28;20272;-70
2022/04/07 02:02:17;;;;;;;;;;;9.00;99.90;;;;;;8399596;28;19951;-70
2022/04/07 02:06:19;;;;;;;;;;;9.00;99.90;;;;;;8401164;28;19999;-70
2022/04/07 02:10:23;;;;;;;;;;;9.10;99.90;;;;;;8401905;28;20388;-70
2022/04/07 02:14:25;;;;;;;;;;;9.10;99.90;;;;;;8395907;28;19940;-71
2022/04/07 02:18:27;;;;;;;;;;;9.20;99.90;;;;;;8404585;28;19933;-70
2022/04/07 02:22:29;;;;;;;;;;;9.20;99.90;;;;;;8396738;28;19924;-71
2022/04/07 02:26:30;;;;;;;;;;;9.20;99.90;;;;;;8409801;28;19931;-70
2022/04/07 02:30:32;;;;;;;;;;;9.30;99.90;;;;;;8411606;28;19928;-70
2022/04/07 02:34:34;;;;;;;;;;;9.30;99.90;;;;;;8397231;28;19928;-70
2022/04/07 02:38:36;;;;;;;;;;;9.40;99.90;;;;;;8409867;28;19924;-70
2022/04/07 02:42:38;;;;;;;;;;;9.50;99.90;;;;;;8392880;28;19955;-70
2022/04/07 02:46:40;;;;;;;;;;;9.50;99.90;;;;;;8404130;28;19939;-71
2022/04/07 02:50:41;;;;;;;;;;;9.50;99.90;;;;;;8392669;28;19931;-70
2022/04/07 02:54:43;;;;;;;;;;;9.50;99.90;;;;;;8394198;28;19932;-71
2022/04/07 02:58:44;;;;;;;;;;;9.50;99.90;;;;;;8391830;28;19925;-70
2022/04/07 03:02:46;;;;;;;;;;;9.60;99.90;;;;;;8400913;28;19931;-70
2022/04/07 03:06:48;;;;;;;;;;;9.60;99.90;;;;;;8400954;28;19928;-70
2022/04/07 03:10:49;;;;;;;;;;;9.60;99.90;;;;;;8388405;28;19924;-71
2022/04/07 03:14:51;;;;;;;;;;;9.60;99.90;;;;;;8398642;28;19924;-71
2022/04/07 03:18:52;;;;;;;;;;;9.60;99.90;;;;;;8396916;28;19939;-70
2022/04/07 03:22:54;;;;;;;;;;;9.60;99.90;;;;;;8397427;28;19925;-71
2022/04/07 03:26:56;;;;;;;;;;;9.70;99.90;;;;;;8400230;28;19931;-71
2022/04/07 03:30:57;;;;;;;;;;;9.70;99.90;;;;;;8409848;28;19931;-70
2022/04/07 03:34:59;;;;;;;;;;;9.70;99.90;;;;;;8400543;28;19998;-70
2022/04/07 03:39:01;;;;;;;;;;;9.70;99.90;;;;;;8403925;28;19925;-70
2022/04/07 03:43:03;;;;;;;;;;;9.70;99.90;;;;;;8392094;28;19937;-70
2022/04/07 03:47:05;;;;;;;;;;;9.60;99.90;;;;;;8390657;28;19935;-70
2022/04/07 03:51:07;;;;;;;;;;;9.50;99.90;;;;;;8399500;28;19928;-70
2022/04/07 03:55:09;;;;;;;;;;;9.40;99.90;;;;;;8393998;28;19932;-71
2022/04/07 03:59:10;;;;;;;;;;;9.30;99.90;;;;;;8392770;28;20311;-70
2022/04/07 04:03:12;;;;;;;;;;;9.20;99.90;;;;;;8389578;28;19944;-70
2022/04/07 04:07:14;;;;;;;;;;;9.20;99.90;;;;;;8396236;28;20395;-70
2022/04/07 04:11:15;;;;;;;;;;;9.10;99.90;;;;;;8389442;28;19932;-70
2022/04/07 04:15:18;;;;;;;;;;;9.20;99.90;;;;;;8389294;28;20388;-70
2022/04/07 04:19:19;;;;;;;;;;;9.20;99.90;;;;;;8408995;28;19924;-70
2022/04/07 04:23:21;;;;;;;;;;;9.20;99.90;;;;;;8402985;28;19947;-70
2022/04/07 04:27:22;;;;;;;;;;;9.30;99.90;;;;;;8396630;28;19939;-71
2022/04/07 04:31:27;;;;;;;;;;;9.30;99.90;;;;;;8391459;28;20233;-70
2022/04/07 04:35:29;;;;;;;;;;;9.40;99.90;;;;;;8387071;28;19928;-71
2022/04/07 04:39:30;;;;;;;;;;;9.40;99.90;;;;;;8397419;28;19925;-70
2022/04/07 04:43:32;;;;;;;;;;;9.40;99.90;;;;;;8392653;28;20529;-70
2022/04/07 04:47:34;;;;;;;;;;;9.40;99.90;;;;;;8392965;28;19939;-70
2022/04/07 04:51:35;;;;;;;;;;;9.40;99.90;;;;;;8429630;27;19932;-70
2022/04/07 04:55:37;;;;;;;;;;;9.40;99.90;;;;;;8376212;28;19933;-70
2022/04/07 04:59:39;;;;;;;;;;;9.40;99.90;;;;;;8371205;28;20376;-70
2022/04/07 05:03:40;;;;;;;;;;;9.40;99.90;;;;;;8371434;28;20292;-70
2022/04/07 05:07:42;;;;;;;;;;;9.30;99.90;;;;;;8369529;28;19931;-70
2022/04/07 05:11:44;;;;;;;;;;;9.20;99.90;;;;;;8374623;28;19932;-70
2022/04/07 05:15:45;;;;;;;;;;;9.10;99.90;;;;;;8363886;28;19932;-71
2022/04/07 05:19:48;;;;;;;;;;;8.90;99.90;;;;;;8369266;28;19932;-71
2022/04/07 05:23:49;;;;;;;;;;;8.90;99.90;;;;;;8352627;28;19972;-71
2022/04/07 05:27:51;;;;;;;;;;;8.80;99.90;;;;;;8340629;28;19932;-71
2022/04/07 05:31:53;;;;;;;;;;;8.80;99.90;;;;;;8368415;28;19933;-70
2022/04/07 05:35:55;;;;;;;;;;;8.80;99.90;;;;;;8369158;28;20344;-70
2022/04/07 05:39:59;;;;;;;;;;;8.70;99.90;;;;;;8368106;28;20347;-71
2022/04/07 05:44:04;;;;;;;;;;;8.70;99.90;;;;;;8379525;28;19978;-71
2022/04/07 05:48:06;;;;;;;;;;;8.70;99.90;;;;;;8374914;28;19928;-71
2022/04/07 05:52:08;;;;;;;;;;;8.70;99.90;;;;;;8380860;28;19947;-71
2022/04/07 05:56:11;;;;;;;;;;;8.70;99.90;;;;;;8377564;28;19925;-72
2022/04/07 06:00:16;;;;;;;;;;;8.70;99.90;;;;;;8377276;28;19925;-72
2022/04/07 06:04:18;;;;;;;;;;;8.70;99.90;;;;;;8367516;28;20070;-72
2022/04/07 06:08:20;;;;;;;;;;;8.70;99.90;;;;;;8379045;28;19934;-72
2022/04/07 06:12:21;;;;;;;;;;;8.70;99.90;;;;;;8363524;28;19928;-73
2022/04/07 06:16:23;;;;;;;;;;;8.80;99.90;;;;;;8368259;28;19943;-72
2022/04/07 06:20:25;;;;;;;;;;;8.80;99.90;;;;;;8363610;28;20327;-73
2022/04/07 06:24:27;;;;;;;;;;;8.20;99.90;;;;;;8368550;28;20028;-74
2022/04/07 06:28:29;;;;;;;;;;;7.10;99.90;;;;;;8380451;28;19978;-73
2022/04/07 06:32:31;;;;;;;;;;;6.20;99.90;;;;;;8414757;28;19925;-73
2022/04/07 06:36:33;;;;;;;;;;;5.80;99.90;;;;;;8378163;28;20318;-73
2022/04/07 06:40:34;;;;;;;;;;;5.60;99.90;;;;;;8370160;28;19929;-73
2022/04/07 06:44:36;;;;;;;;;;;5.60;99.90;;;;;;8355822;28;19940;-72
2022/04/07 06:48:37;;;;;;;;;;;5.60;99.90;;;;;;8357101;28;19924;-72
2022/04/07 06:52:40;;;;;;;;;;;5.70;99.90;;;;;;8378820;28;20543;-72
2022/04/07 06:56:41;;;;;;;;;;;5.80;99.90;;;;;;8368338;28;19994;-72
2022/04/07 07:00:44;;;;;;;;;;;5.90;99.90;;;;;;8355563;28;19979;-72
2022/04/07 07:04:46;;;;;;;;;;;5.90;99.90;;;;;;8356836;28;19937;-72
2022/04/07 07:08:48;;;;;;;;;;;6.00;99.90;;;;;;8386211;27;19974;-72
2022/04/07 07:12:50;;;;;;;;;;;6.00;99.90;;;;;;8354458;28;19956;-73
2022/04/07 07:16:52;;;;;;;;;;;6.00;99.90;;;;;;8358356;28;20015;-72
2022/04/07 07:20:54;;;;;;;;;;;6.00;99.90;;;;;;8391006;28;19929;-73
2022/04/07 07:24:55;;;;;;;;;;;6.00;99.90;;;;;;8355576;28;20268;-72
2022/04/07 07:28:57;;;;;;;;;;;6.00;99.90;;;;;;8387260;28;19970;-73
2022/04/07 07:32:59;;;;;;;;;;;6.00;99.90;;;;;;8359931;28;19978;-73
2022/04/07 07:37:00;;;;;;;;;;;6.00;99.90;;;;;;8359832;28;19943;-73
2022/04/07 07:41:02;;;;;;;;;;;6.00;99.90;;;;;;8365447;28;20438;-73
2022/04/07 07:45:04;;;;;;;;;;;6.00;99.90;;;;;;8390239;27;19933;-73
2022/04/07 07:49:08;;;;;;;;;;;6.10;99.90;;;;;;8356674;28;19935;-73
2022/04/07 07:53:11;;;;;;;;;;;6.10;99.90;;;;;;8359247;28;19924;-73
2022/04/07 07:57:13;;;;;;;;;;;6.10;99.90;;;;;;8385677;28;20376;-72
2022/04/07 08:01:14;;;;;;;;;;;6.10;99.90;;;;;;8389490;28;19940;-73
2022/04/07 08:05:16;;;;;;;;;;;6.10;99.90;;;;;;8353217;28;19932;-73
2022/04/07 08:09:18;;;;;;;;;;;6.10;99.90;;;;;;8368875;28;19924;-72
2022/04/07 08:13:20;;;;;;;;;;;6.20;99.90;;;;;;8353336;28;19940;-72
2022/04/07 08:17:22;;;;;;;;;;;6.30;99.90;;;;;;8356931;28;19932;-72
2022/04/07 08:21:24;;;;;;;;;;;6.50;99.90;;;;;;8357853;28;19932;-72
2022/04/07 08:25:25;;;;;;;;;;;6.60;99.90;;;;;;8362352;28;19928;-72
2022/04/07 08:29:27;;;;;;;;;;;6.80;99.90;;;;;;8388586;27;19924;-72
2022/04/07 08:33:29;;;;;;;;;;;7.00;99.90;;;;;;8360357;28;19935;-72
2022/04/07 08:37:30;;;;;;;;;;;7.30;99.90;;;;;;8349178;28;19925;-72
2022/04/07 08:41:34;;;;;;;;;;;7.60;99.90;;;;;;8353963;28;19935;-72
2022/04/07 08:45:36;;;;;;;;;;;7.80;99.90;;;;;;8351249;28;20011;-72
2022/04/07 08:49:38;;;;;;;;;;;8.00;99.90;;;;;;8355751;28;20425;-72
2022/04/07 08:53:40;;;;;;;;;;;8.30;99.90;;;;;;8392157;27;19936;-72
2022/04/07 08:57:42;;;;;;;;;;;8.50;99.90;;;;;;8351784;28;20006;-72
2022/04/07 09:01:44;;;;;;;;;;;8.60;99.90;;;;;;8352772;28;19939;-72
2022/04/07 09:05:55;;;;;;;;;;;8.70;99.90;;;;;;8355666;28;19960;-72
2022/04/07 09:10:00;;;;;;;;;;;8.80;99.90;;;;;;8356485;28;19947;-71
2022/04/07 09:14:01;;;;;;;;;;;8.90;99.90;;;;;;8356889;28;20373;-72
2022/04/07 09:18:05;;;;;;;;;;;9.00;99.90;;;;;;8360873;28;19940;-72
2022/04/07 09:22:13;;;;;;;;;;;9.10;99.90;;;;;;8359657;28;20292;-72
2022/04/07 09:26:16;;;;;;;;;;;9.20;99.90;;;;;;8352359;28;19940;-72
2022/04/07 09:30:18;;;;;;;;;;;9.30;99.90;;;;;;8349109;28;19933;-72
2022/04/07 09:34:29;;;;;;;;;;;9.40;99.90;;;;;;8355923;28;19951;-71
2022/04/07 09:38:53;;;;;;;;;;;9.60;99.90;;;;;;8350213;28;19928;-71
2022/04/07 09:42:58;;;;;;;;;;;9.60;99.90;;;;;;8349102;28;19936;-71
2022/04/07 09:47:09;;;;;;;;;;;9.60;99.90;;;;;;8349435;28;19936;-71
2022/04/07 09:51:11;;;;;;;;;;;9.60;99.90;;;;;;8354097;28;19967;-71
2022/04/07 09:55:12;;;;;;;;;;;9.60;99.90;;;;;;8353240;28;19928;-71
2022/04/07 09:59:19;;;;;;;;;;;9.60;99.90;;;;;;8353441;28;19994;-72
2022/04/07 10:03:21;;;;;;;;;;;9.60;99.90;;;;;;8350053;28;20214;-71
2022/04/07 10:07:26;;;;;;;;;;;9.60;99.90;;;;;;8350933;28;19979;-71
2022/04/07 10:11:29;;;;;;;;;;;9.70;99.90;;;;;;8354472;28;20005;-71
2022/04/07 10:15:35;;;;;;;;;;;9.90;99.90;;;;;;8363596;28;19936;-72
2022/04/07 10:19:38;;;;;;;;;;;10.10;99.90;;;;;;8371058;28;19956;-71
2022/04/07 10:24:03;;;;;;;;;;;10.20;99.90;;;;;;8364369;28;20296;-71
2022/04/07 10:28:05;;;;;;;;;;;10.20;99.90;;;;;;8388488;28;19932;-71
2022/04/07 10:32:19;;;;;;;;;;;10.30;99.90;;;;;;8368216;28;19925;-71
2022/04/07 10:36:22;;;;;;;;;;;10.20;99.90;;;;;;8352009;28;19929;-71
2022/04/07 10:40:34;;;;;;;;;;;10.10;99.90;;;;;;8357934;28;19979;-71
2022/04/07 10:44:39;;;;;;;;;;;10.00;99.90;;;;;;8357220;28;19929;-71
2022/04/07 10:48:44;;;;;;;;;;;9.90;99.90;;;;;;8355786;28;19924;-71
2022/04/07 10:52:47;;;;;;;;;;;9.80;99.90;;;;;;8363345;28;19933;-70
2022/04/07 10:56:49;;;;;;;;;;;9.80;99.90;;;;;;8355762;28;20277;-71
2022/04/07 11:00:51;;;;;;;;;;;9.80;99.90;;;;;;8359350;28;20604;-71
2022/04/07 11:05:01;;;;;;;;;;;9.70;99.90;;;;;;8362074;28;20277;-70
2022/04/07 11:09:14;;;;;;;;;;;9.80;99.90;;;;;;8359073;28;19925;-71
2022/04/07 11:13:15;;;;;;;;;;;9.80;99.90;;;;;;8357173;28;19974;-71
2022/04/07 11:17:36;;;;;;;;;;;10.00;99.90;;;;;;8360779;28;19924;-71
2022/04/07 11:21:45;;;;;;;;;;;10.10;99.90;;;;;;8359063;28;19932;-71
2022/04/07 11:25:47;;;;;;;;;;;10.20;99.90;;;;;;8351399;28;20434;-71
2022/04/07 11:30:02;;;;;;;;;;;10.30;99.90;;;;;;8360530;28;20368;-71
2022/04/07 11:34:23;;;;;;;;;;;10.40;99.90;;;;;;8356649;28;19929;-71
2022/04/07 11:38:29;;;;;;;;;;;10.60;99.90;;;;;;8354149;28;19933;-70
2022/04/07 11:42:32;;;;;;;;;;;10.80;99.90;;;;;;8363125;28;19924;-71
2022/04/07 11:46:34;;;;;;;;;;;11.10;99.90;;;;;;8362324;28;19933;-71
2022/04/07 11:50:38;;;;;;;9.05;1.80;;;11.20;99.90;;;;;;8359454;28;19972;-71
2022/04/07 11:54:40;;;;;;;;;;;11.30;99.90;;;;;;8356571;28;20048;-70
2022/04/07 11:58:42;;;;;;;;;;;11.30;99.90;;;;;;8357440;28;19927;-70
2022/04/07 12:02:56;;;;;;;;;;;11.10;99.90;;;;;;8358339;28;19920;-71
2022/04/07 12:06:59;;;;;;;;;;;11.00;99.90;;;;;;8358909;28;19928;-70
2022/04/07 12:11:01;;;;;;;;;;;10.90;99.90;;;;;;8359736;28;19924;-71
2022/04/07 12:15:03;;;;;;;;;;;10.90;99.90;;;;;;8352639;28;19932;-71
2022/04/07 12:19:05;;;;;;;;;;;11.10;99.90;;;;;;8360633;28;19921;-71
2022/04/07 12:23:11;;;;;;;;;;;11.40;99.90;;;;;;8362222;28;20368;-71
2022/04/07 12:27:25;;;;;;;;;;;11.70;99.90;;;;;;8354309;28;20380;-71
2022/04/07 12:31:27;;;;;;;;;;;11.80;99.90;;;;;;8363195;28;20296;-71
2022/04/07 12:35:43;;;;;;;;;;;12.20;99.90;;;;;;8352843;28;19942;-71
2022/04/07 12:39:44;;;;;;;;;;;12.50;99.90;;;;;;8355437;28;19928;-71
2022/04/07 12:43:50;;;;;;;;;;;12.60;99.90;;;;;;8352856;28;20008;-71
2022/04/07 12:48:01;;;;;;;;;;;12.50;99.90;;;;;;8367835;28;21933;-71
2022/04/07 12:52:37;;;;;;;;;;;12.20;99.90;;;;;;8352667;28;19967;-71
2022/04/07 12:56:40;;;;;;;;;;;12.00;99.90;;;;;;8353599;28;19921;-71
2022/04/07 13:00:42;;;;;;;;;;;11.80;99.90;;;;;;8355025;28;19924;-71
2022/04/07 13:04:50;;;;;;;;;;;11.80;99.90;;;;;;8351694;28;19924;-71
2022/04/07 13:08:53;;;;;;;;;;;11.70;99.90;;;;;;8356494;28;19920;-70
2022/04/07 13:12:54;;;;;;;;;;;11.80;99.90;;;;;;8354454;28;20364;-71
2022/04/07 13:16:56;;;;;;;;;;;11.90;99.90;;;;;;8352698;28;20290;-70
2022/04/07 13:20:58;;;;;;;;;;;12.00;99.90;;;;;;8353757;28;20351;-71
2022/04/07 13:25:00;;;;;;;;;;;12.00;99.90;;;;;;8352107;28;19928;-70
2022/04/07 13:29:01;;;;;;;;;;;12.00;99.90;;;;;;8351560;28;19925;-70
2022/04/07 13:33:03;;;;;;;;;;;11.90;99.90;;;;;;8355122;28;19921;-71
2022/04/07 13:37:04;;;;;;;;;;;12.00;99.90;;;;;;8352104;28;20340;-71
2022/04/07 13:41:07;;;;;;;;;;;12.00;99.90;;;;;;8359814;28;19928;-70
2022/04/07 13:45:09;;;;;;;;;;;11.90;99.90;;;;;;8352684;28;19924;-70
2022/04/07 13:49:12;;;;;;;;;;;11.80;99.90;;;;;;8352652;28;19924;-70
2022/04/07 13:53:16;;;;;;;;;;;11.70;99.90;;;;;;8358911;28;19925;-70
2022/04/07 13:57:17;;;;;;;;;;;11.70;99.90;;;;;;8385514;28;19955;-70
2022/04/07 14:01:21;;;;;;;;;;;11.60;99.90;;;;;;8354282;28;19921;-71
2022/04/07 14:05:23;;;;;;;;;;;11.40;99.90;;;;;;8353063;28;19925;-71
2022/04/07 14:09:25;;;;;;;;;;;11.40;99.90;;;;;;8348949;28;19924;-70
2022/04/07 14:13:28;;;;;;;;;;;11.30;99.90;;;;;;8350423;28;19932;-70
2022/04/07 14:17:29;;;;;;;;;;;11.30;99.90;;;;;;8361047;28;19928;-70
2022/04/07 14:21:32;;;;;;;;;;;11.20;99.90;;;;;;8355264;28;19928;-70
2022/04/07 14:25:34;;;;;;;;;;;11.10;99.90;;;;;;8385134;28;19929;-70
2022/04/07 14:29:36;;;;;;;;;;;11.10;99.90;;;;;;8349996;28;19925;-70
2022/04/07 14:33:37;;;;;;;;;;;11.10;99.90;;;;;;8353252;28;19920;-70
2022/04/07 14:37:39;;;;;;;;;;;11.00;99.90;;;;;;8351237;28;19928;-70
2022/04/07 14:41:42;;;;;;;;;;;11.00;99.90;;;;;;8353420;28;19920;-70
2022/04/07 14:45:44;;;;;;;;;;;10.70;99.90;;;;;;8349428;28;19927;-70
2022/04/07 14:49:46;;;;;;;;;;;10.50;99.90;;;;;;8353257;28;19952;-70
2022/04/07 14:53:47;;;;;;;;;;;10.70;99.90;;;;;;8358769;28;20931;-71
2022/04/07 14:57:49;;;;;;;;;;;10.80;99.90;;;;;;8354238;28;20126;-70
2022/04/07 15:01:51;;;;;;;;;;;10.80;99.90;;;;;;8356379;28;19921;-70
2022/04/07 15:05:55;;;;;;;;;;;10.30;99.90;;;;;;8347923;28;19927;-70
2022/04/07 15:09:56;;;;;;;;;;;10.10;99.90;;;;;;8359628;28;19928;-70
2022/04/07 15:13:58;;;;;;;;;;;10.20;99.90;;;;;;8358676;28;20001;-70
2022/04/07 15:18:00;;;;;;;;;;;10.50;99.90;;;;;;8354643;28;20576;-70
2022/04/07 15:22:02;;;;;;;1.90;0.75;;;10.30;99.90;;;;;;8357391;28;20277;-71
2022/04/07 15:26:04;;;;;;;;;;;9.00;99.90;;;;;;8384455;27;20051;-72
2022/04/07 15:30:06;;;;;;;;;;;8.10;99.90;;;;;;8359228;28;20357;-72
2022/04/07 15:34:08;;;;;;;;;;;7.70;99.90;;;;;;8355373;28;20125;-72
2022/04/07 15:38:10;;;;;;;;;;;7.60;99.90;;;;;;8365931;28;19968;-73
2022/04/07 15:42:11;;;;;;;;;;;7.30;99.90;;;;;;8356910;28;19960;-72
2022/04/07 15:46:13;;;;;;;;;;;7.10;99.90;;;;;;8365660;28;19921;-72
2022/04/07 15:50:15;;;;;;;;;;;7.00;99.90;;;;;;8372191;28;20011;-72
2022/04/07 15:54:17;;;;;;;;;;;7.10;99.90;;;;;;8367375;28;19929;-72
2022/04/07 15:58:19;;;;;;;;;;;7.20;99.90;;;;;;8368638;28;20264;-71
2022/04/07 16:02:24;;;;;;;;;;;7.30;99.90;;;;;;8357281;28;20015;-71
2022/04/07 16:06:25;;;;;;;;;;;7.40;99.90;;;;;;8384347;27;19921;-71
2022/04/07 16:10:27;;;;;;;;;;;7.30;99.90;;;;;;8361414;28;19973;-71
2022/04/07 16:14:29;;;;;;;;;;;7.20;99.90;;;;;;8356077;28;19928;-72
2022/04/07 16:18:30;;;;;;;;;;;7.00;99.90;;;;;;8361969;28;19925;-73
2022/04/07 16:22:33;;;;;;;;;;;6.80;99.90;;;;;;8358592;28;19928;-72
2022/04/07 16:26:35;;;;;;;;;;;6.70;99.90;;;;;;8359276;28;19928;-72
2022/04/07 16:30:37;;;;;;;;;;;6.70;99.90;;;;;;8356176;28;19924;-73
2022/04/07 16:34:39;;;;;;;;;;;6.80;99.90;;;;;;8354751;28;20042;-72
2022/04/07 16:38:41;;;;;;;;;;;6.70;99.90;;;;;;8360222;28;19928;-73
2022/04/07 16:42:42;;;;;;;;;;;6.30;99.90;;;;;;8363489;28;20224;-74
2022/04/07 16:46:44;;;;;;;;;;;6.10;99.90;;;;;;8356370;28;19943;-73
2022/04/07 16:50:46;;;;;;;;;;;5.80;99.90;;;;;;8360285;28;19925;-73
2022/04/07 16:54:47;;;;;;;;;;;5.70;99.90;;;;;;8355576;28;19925;-73
2022/04/07 16:58:49;;;;;;;;;;;5.70;99.90;;;;;;8367098;28;19932;-73
2022/04/07 17:02:51;;;;;;;;;;;5.80;99.90;;;;;;8395260;27;20023;-73
2022/04/07 17:06:52;;;;;;;;;;;5.90;99.90;;;;;;8358238;28;20387;-73
2022/04/07 17:10:54;;;;;;;;;;;6.10;99.90;;;;;;8354048;28;22069;-73
2022/04/07 17:14:57;;;;;;;;;;;6.30;99.90;;;;;;8371890;28;19921;-73
2022/04/07 17:19:00;;;;;;;;;;;6.60;99.90;;;;;;8394459;27;19920;-72
2022/04/07 17:23:02;;;;;;;;;;;7.10;99.90;;;;;;8357033;28;19932;-73
2022/04/07 17:27:04;;;;;;;;;;;7.30;99.90;;;;;;8353847;28;19921;-73
2022/04/07 17:31:05;;;;;;;;;;;7.40;99.90;;;;;;8358925;28;19935;-73
2022/04/07 17:35:08;;;;;;;;;;;7.50;99.90;;;;;;8382018;28;20265;-73
2022/04/07 17:39:09;;;;;;;;;;;7.50;99.90;;;;;;8366358;28;20272;-72
2022/04/07 17:43:12;;;;;;;;;;;7.60;99.90;;;;;;8357405;28;19936;-72
2022/04/07 17:47:15;;;;;;;;;;;7.60;99.90;;;;;;8350398;28;19925;-72
2022/04/07 17:51:16;;;;;;;;;;;7.60;99.90;;;;;;8351451;28;20325;-72
2022/04/07 17:55:18;;;;;;;;;;;7.70;99.90;;;;;;8351929;28;19931;-72
2022/04/07 17:59:20;;;;;;;;;;;7.80;99.90;;;;;;8352823;28;19925;-72
2022/04/07 18:03:21;;;;;;;;;;;8.00;99.90;;;;;;8384463;28;20365;-72
2022/04/07 18:07:23;;;;;;;;;;;7.80;99.90;;;;;;8357043;28;19932;-74
2022/04/07 18:11:25;;;;;;;;;;;7.00;99.90;;;;;;8356418;28;20261;-74
2022/04/07 18:15:29;;;;;;;;;;;6.50;99.90;;;;;;8370212;28;20383;-74
2022/04/07 18:19:30;;;;;;;;;;;6.30;99.90;;;;;;8367606;28;19956;-74
2022/04/07 18:23:32;;;;;;;;;;;6.30;99.90;;;;;;8363397;28;20413;-73
2022/04/07 18:27:34;;;;;;;;;;;6.40;99.90;;;;;;8353722;28;20030;-74
2022/04/07 18:31:36;;;;;;;;;;;6.50;99.90;;;;;;8356993;28;19931;-74
2022/04/07 18:35:37;;;;;;;;;;;6.50;99.90;;;;;;8354227;28;20436;-74
2022/04/07 18:39:41;;;;;;;;;;;6.60;99.90;;;;;;8392963;27;19924;-73
2022/04/07 18:43:43;;;;;;;;;;;6.70;99.90;;;;;;8360165;28;19925;-73
2022/04/07 18:47:45;;;;;;;;;;;6.90;99.90;;;;;;8389886;27;19929;-73
2022/04/07 18:51:46;;;;;;;;;;;7.00;99.90;;;;;;8357335;28;19921;-74
2022/04/07 18:55:49;;;;;;;;;;;7.10;99.90;;;;;;8365381;28;20291;-74
2022/04/07 18:59:51;;;;;;;;;;;6.80;99.90;;;;;;8360483;28;19928;-74
2022/04/07 19:03:52;;;;;;;;;;;6.30;99.90;;;;;;8359831;28;19927;-74
2022/04/07 19:07:55;;;;;;;;;;;6.10;99.90;;;;;;8363862;28;19921;-74
2022/04/07 19:11:57;;;;;;;;;;;6.00;99.90;;;;;;8361371;28;20365;-74
2022/04/07 19:15:59;;;;;;;;;;;6.00;99.90;;;;;;8366275;28;20316;-74
2022/04/07 19:20:01;;;;;;;;;;;6.10;99.90;;;;;;8361699;28;19929;-74
2022/04/07 19:24:03;;;;;;;;;;;6.10;99.90;;;;;;8365586;28;19935;-74
2022/04/07 19:28:05;;;;;;;;;;;6.30;99.90;;;;;;8360800;28;19925;-74
2022/04/07 19:32:07;;;;;;;;;;;6.30;99.90;;;;;;8362662;28;19921;-74
2022/04/07 19:36:09;;;;;;;;;;;6.40;99.90;;;;;;8362561;28;19924;-74
2022/04/07 19:40:11;;;;;;;;;;;6.50;99.90;;;;;;8358999;28;19921;-73
2022/04/07 19:44:13;;;;;;;;;;;6.50;99.90;;;;;;8368656;28;20261;-73
2022/04/07 19:48:14;;;;;;;;;;;6.50;99.90;;;;;;8359771;28;19943;-73
2022/04/07 19:52:21;;;;;;;;;;;6.60;99.90;;;;;;8360160;28;19932;-74
2022/04/07 19:56:23;;;;;;;;;;;6.60;99.90;;;;;;8358649;28;19982;-73
2022/04/07 20:00:25;;;;;;;;;;;6.60;99.90;;;;;;8358378;28;19921;-74
2022/04/07 20:04:26;;;;;;;;;;;6.70;99.90;;;;;;8356583;28;19935;-73
2022/04/07 20:08:28;;;;;;;;;;;6.70;99.90;;;;;;8361676;28;19924;-73
2022/04/07 20:12:30;;;;;;;;;;;6.80;99.90;;;;;;8358086;28;19936;-73
2022/04/07 20:16:31;;;;;;;;;;;6.80;99.90;;;;;;8358033;28;20276;-73
2022/04/07 20:20:33;;;;;;;;;;;6.90;99.90;;;;;;8357462;28;20315;-73
2022/04/07 20:24:34;;;;;;;;;;;6.90;99.90;;;;;;8357729;28;19927;-73
2022/04/07 20:28:40;;;;;;;;;;;6.90;99.90;;;;;;8353169;28;20376;-73
2022/04/07 20:32:42;;;;;;;;;;;6.90;99.90;;;;;;8359564;28;19935;-73
2022/04/07 20:36:44;;;;;;;;;;;7.00;99.90;;;;;;8357267;28;20046;-73
2022/04/07 20:40:46;;;;;;;;;;;7.00;99.90;;;;;;8355577;28;19959;-73
2022/04/07 20:44:48;;;;;;;;;;;6.90;99.90;;;;;;8355307;28;19947;-73
2022/04/07 20:48:50;;;;;;;;;;;6.90;99.90;;;;;;8351863;28;19921;-73
2022/04/07 20:52:52;;;;;;;;;;;6.80;99.90;;;;;;8356957;28;19928;-73
2022/04/07 20:56:53;;;;;;;;;;;6.70;99.90;;;;;;8354621;28;19921;-73
2022/04/07 21:00:55;;;;;;;;;;;6.60;99.90;;;;;;8388387;28;19979;-73
2022/04/07 21:04:57;;;;;;;;;;;6.60;99.90;;;;;;8383592;28;19939;-73
2022/04/07 21:08:59;;;;;;;;;;;6.50;99.90;;;;;;8376259;28;19925;-73
2022/04/07 21:13:00;;;;;;;;;;;6.50;99.90;;;;;;8416726;27;20319;-73
2022/04/07 21:17:03;;;;;;;;;;;6.50;99.90;;;;;;8373984;28;19920;-73
2022/04/07 21:21:05;;;;;;;;;;;6.50;99.90;;;;;;8379153;28;20296;-73
2022/04/07 21:25:06;;;;;;;;;;;6.60;99.90;;;;;;8387966;28;19927;-73
2022/04/07 21:29:08;;;;;;;;;;;6.60;99.90;;;;;;8376823;28;20003;-74
2022/04/07 21:33:10;;;;;;;;;;;6.60;99.90;;;;;;8389370;28;19920;-73
2022/04/07 21:37:11;;;;;;;;;;;6.60;99.90;;;;;;8378772;28;19920;-73
2022/04/07 21:41:14;;;;;;;;;;;6.70;99.90;;;;;;8378563;28;19932;-73
2022/04/07 21:45:16;;;;;;;;;;;6.70;99.90;;;;;;8378838;28;19947;-73
2022/04/07 21:49:17;;;;;;;;;;;6.70;99.90;;;;;;8380887;28;19920;-73
2022/04/07 21:53:19;;;;;;;;;;;6.70;99.90;;;;;;8386133;28;19928;-73
2022/04/07 21:57:21;;;;;;;;;;;6.70;99.90;;;;;;8384069;28;22044;-73
2022/04/07 22:01:23;;;;;;;;;;;6.70;99.90;;;;;;8379392;28;19920;-73
2022/04/07 22:05:24;;;;;;;;;;;6.60;99.90;;;;;;8389069;28;19975;-73
2022/04/07 22:09:26;;;;;;;;;;;6.40;99.90;;;;;;8384363;28;19928;-73
2022/04/07 22:13:28;;;;;;;;;;;6.30;99.90;;;;;;8381800;28;20090;-72
2022/04/07 22:17:30;;;;;;;;;;;6.30;99.90;;;;;;8384718;28;20326;-72
2022/04/07 22:21:32;;;;;;;;;;;6.20;99.90;;;;;;8390632;28;19920;-72
